JBU537 KDFW-KFLL
Flight info
| Callsign | JBU537 |
|---|---|
| Flight time | N/A |
| Altitude | 35000 |
| Route | MRSSH3 ZALEA HRV Q105 BLVNS Y290 DOWRY TEEKY4 |
| Aircraft | A320/M-SDE3FGHIRWY/LB1 |
Departure
| Time | N/A |
|---|---|
| Airport | Dallas Fort Worth International Airport (KDFW) |
Arrival
| Time | 2026-05-08 02:47 |
|---|---|
| Airport | Fort Lauderdale Hollywood International Airport (KFLL) |
| Time | Latitude | Longitude | Altitude | Speed | Heading |
|---|---|---|---|---|---|
| 2026-05-08 02:25 | 26.61345 | -81.63004 | 26854 ft | 454 kts | 129° |
| 2026-05-08 02:25 | 26.59450 | -81.60207 | 26348 ft | 450 kts | 128° |
| 2026-05-08 02:26 | 26.57587 | -81.57420 | 25835 ft | 447 kts | 128° |
| 2026-05-08 02:26 | 26.55739 | -81.54652 | 25322 ft | 443 kts | 128° |
| 2026-05-08 02:26 | 26.53898 | -81.51905 | 24815 ft | 440 kts | 128° |
| 2026-05-08 02:26 | 26.52095 | -81.49220 | 24304 ft | 436 kts | 128° |
| 2026-05-08 02:27 | 26.50283 | -81.46528 | 23782 ft | 433 kts | 128° |
| 2026-05-08 02:27 | 26.48477 | -81.43846 | 23264 ft | 430 kts | 128° |
| 2026-05-08 02:27 | 26.46685 | -81.41187 | 22753 ft | 426 kts | 128° |
| 2026-05-08 02:27 | 26.44908 | -81.38554 | 22259 ft | 423 kts | 128° |
| 2026-05-08 02:28 | 26.43163 | -81.35970 | 21776 ft | 420 kts | 128° |
| 2026-05-08 02:28 | 26.41402 | -81.33375 | 21286 ft | 416 kts | 130° |
| 2026-05-08 02:28 | 26.39572 | -81.30871 | 20800 ft | 413 kts | 131° |
| 2026-05-08 02:28 | 26.37769 | -81.28460 | 20349 ft | 409 kts | 132° |
| 2026-05-08 02:29 | 26.35954 | -81.26041 | 19890 ft | 406 kts | 132° |
| 2026-05-08 02:29 | 26.34144 | -81.23631 | 19443 ft | 403 kts | 131° |
| 2026-05-08 02:29 | 26.32342 | -81.21225 | 19001 ft | 400 kts | 131° |
| 2026-05-08 02:29 | 26.30581 | -81.18874 | 18568 ft | 397 kts | 131° |
| 2026-05-08 02:30 | 26.28812 | -81.16511 | 18132 ft | 394 kts | 131° |
| 2026-05-08 02:30 | 26.27073 | -81.14213 | 17699 ft | 391 kts | 131° |
| 2026-05-08 02:30 | 26.25317 | -81.11904 | 17264 ft | 388 kts | 131° |
| 2026-05-08 02:30 | 26.23592 | -81.09637 | 16842 ft | 385 kts | 131° |
| 2026-05-08 02:31 | 26.21861 | -81.07362 | 16421 ft | 382 kts | 131° |
| 2026-05-08 02:31 | 26.20155 | -81.05119 | 16004 ft | 379 kts | 131° |
| 2026-05-08 02:31 | 26.18461 | -81.02890 | 15615 ft | 375 kts | 131° |
| 2026-05-08 02:31 | 26.16781 | -81.00684 | 15256 ft | 366 kts | 131° |
| 2026-05-08 02:32 | 26.15233 | -80.98518 | 14822 ft | 359 kts | 122° |
| 2026-05-08 02:32 | 26.14280 | -80.95991 | 14351 ft | 352 kts | 102° |
| 2026-05-08 02:32 | 26.13823 | -80.93335 | 13885 ft | 346 kts | 99° |
| 2026-05-08 02:32 | 26.13438 | -80.90736 | 13427 ft | 339 kts | 99° |
| 2026-05-08 02:33 | 26.13055 | -80.88187 | 12980 ft | 334 kts | 99° |
| 2026-05-08 02:33 | 26.12655 | -80.85654 | 12538 ft | 328 kts | 99° |
| 2026-05-08 02:33 | 26.12253 | -80.83198 | 12113 ft | 322 kts | 100° |
| 2026-05-08 02:33 | 26.11850 | -80.80767 | 11719 ft | 317 kts | 100° |
| 2026-05-08 02:34 | 26.11264 | -80.78438 | 11307 ft | 312 kts | 117° |
| 2026-05-08 02:34 | 26.09942 | -80.76554 | 10889 ft | 306 kts | 143° |
| 2026-05-08 02:34 | 26.08083 | -80.75486 | 10456 ft | 299 kts | 168° |
| 2026-05-08 02:34 | 26.06062 | -80.75394 | 10011 ft | 293 kts | 193° |
| 2026-05-08 02:35 | 26.04206 | -80.76257 | 9560 ft | 288 kts | 215° |
| 2026-05-08 02:35 | 26.02724 | -80.77727 | 9091 ft | 285 kts | 237° |
| 2026-05-08 02:35 | 26.01983 | -80.79715 | 8624 ft | 282 kts | 263° |
| 2026-05-08 02:35 | 26.02131 | -80.81859 | 8161 ft | 280 kts | 288° |
| 2026-05-08 02:36 | 26.03086 | -80.83697 | 7693 ft | 279 kts | 313° |
| 2026-05-08 02:36 | 26.04690 | -80.84898 | 7385 ft | 279 kts | 339° |
| 2026-05-08 02:36 | 26.06625 | -80.85214 | 7138 ft | 282 kts | 5° |
| 2026-05-08 02:36 | 26.08475 | -80.84557 | 6999 ft | 277 kts | 31° |
| 2026-05-08 02:37 | 26.09853 | -80.83119 | 6994 ft | 275 kts | 56° |
| 2026-05-08 02:37 | 26.10559 | -80.81148 | 6993 ft | 276 kts | 82° |
| 2026-05-08 02:37 | 26.10520 | -80.79033 | 7000 ft | 277 kts | 96° |
| 2026-05-08 02:37 | 26.10290 | -80.76891 | 6997 ft | 277 kts | 96° |
| 2026-05-08 02:38 | 26.10059 | -80.74773 | 6995 ft | 277 kts | 96° |
| 2026-05-08 02:38 | 26.09838 | -80.72652 | 6993 ft | 275 kts | 96° |
| 2026-05-08 02:38 | 26.09628 | -80.70575 | 6894 ft | 268 kts | 96° |
| 2026-05-08 02:38 | 26.09427 | -80.68535 | 6742 ft | 260 kts | 96° |
| 2026-05-08 02:39 | 26.09236 | -80.66569 | 6596 ft | 252 kts | 95° |
| 2026-05-08 02:39 | 26.09052 | -80.64667 | 6454 ft | 245 kts | 95° |
| 2026-05-08 02:39 | 26.08872 | -80.62807 | 6266 ft | 240 kts | 95° |
| 2026-05-08 02:39 | 26.08695 | -80.60965 | 6032 ft | 239 kts | 95° |
| 2026-05-08 02:40 | 26.08372 | -80.59147 | 5790 ft | 238 kts | 105° |
| 2026-05-08 02:40 | 26.08005 | -80.57370 | 5542 ft | 238 kts | 98° |
| 2026-05-08 02:40 | 26.07859 | -80.55530 | 5300 ft | 236 kts | 90° |
| 2026-05-08 02:40 | 26.07870 | -80.53729 | 5048 ft | 235 kts | 88° |
| 2026-05-08 02:41 | 26.07906 | -80.51904 | 4803 ft | 234 kts | 88° |
| 2026-05-08 02:41 | 26.07930 | -80.50099 | 4570 ft | 234 kts | 89° |
| 2026-05-08 02:41 | 26.07937 | -80.48307 | 4330 ft | 233 kts | 89° |
| 2026-05-08 02:41 | 26.07931 | -80.46513 | 4096 ft | 232 kts | 90° |
| 2026-05-08 02:42 | 26.07918 | -80.44730 | 3873 ft | 231 kts | 90° |
| 2026-05-08 02:42 | 26.07900 | -80.42941 | 3653 ft | 230 kts | 90° |
| 2026-05-08 02:42 | 26.07882 | -80.41161 | 3435 ft | 229 kts | 90° |
| 2026-05-08 02:42 | 26.07864 | -80.39407 | 3224 ft | 227 kts | 90° |
| 2026-05-08 02:43 | 26.07847 | -80.37676 | 3104 ft | 221 kts | 90° |
| 2026-05-08 02:43 | 26.07832 | -80.35982 | 3002 ft | 214 kts | 90° |
| 2026-05-08 02:43 | 26.07818 | -80.34367 | 2937 ft | 205 kts | 91° |
| 2026-05-08 02:43 | 26.07806 | -80.32804 | 2796 ft | 199 kts | 91° |
| 2026-05-08 02:44 | 26.07794 | -80.31277 | 2548 ft | 198 kts | 91° |
| 2026-05-08 02:44 | 26.07783 | -80.29744 | 2276 ft | 196 kts | 91° |
| 2026-05-08 02:44 | 26.07772 | -80.28257 | 2005 ft | 187 kts | 91° |
| 2026-05-08 02:44 | 26.07763 | -80.26862 | 1753 ft | 179 kts | 91° |
| 2026-05-08 02:45 | 26.07753 | -80.25500 | 1519 ft | 171 kts | 91° |
| 2026-05-08 02:45 | 26.07745 | -80.24211 | 1323 ft | 161 kts | 92° |
| 2026-05-08 02:45 | 26.07738 | -80.23034 | 1129 ft | 147 kts | 92° |
| 2026-05-08 02:45 | 26.07730 | -80.21940 | 907 ft | 138 kts | 92° |
| 2026-05-08 02:46 | 26.07720 | -80.20875 | 696 ft | 135 kts | 93° |
| 2026-05-08 02:46 | 26.07707 | -80.19838 | 567 ft | 135 kts | 92° |
| 2026-05-08 02:46 | 26.07703 | -80.18790 | 447 ft | 134 kts | 92° |
| 2026-05-08 02:46 | 26.07703 | -80.17748 | 268 ft | 134 kts | 92° |
| 2026-05-08 02:47 | 26.07698 | -80.16725 | 93 ft | 133 kts | 92° |
| 2026-05-08 02:47 | 26.07688 | -80.15716 | 10 ft | 117 kts | 89° |
| 2026-05-08 02:47 | 26.07685 | -80.15015 | 10 ft | 52 kts | 92° |
| 2026-05-08 02:47 | 26.07667 | -80.14727 | 9 ft | 31 kts | 103° |
| 2026-05-08 02:48 | 26.07589 | -80.14592 | 9 ft | 12 kts | 187° |
| 2026-05-08 02:48 | 26.07560 | -80.14679 | 9 ft | 13 kts | 270° |
| 2026-05-08 02:48 | 26.07518 | -80.14764 | 9 ft | 14 kts | 198° |
| 2026-05-08 02:48 | 26.07434 | -80.14825 | 9 ft | 14 kts | 225° |
| 2026-05-08 02:49 | 26.07362 | -80.14861 | 9 ft | 11 kts | 163° |
| 2026-05-08 02:49 | 26.07279 | -80.14854 | 9 ft | 12 kts | 182° |
| 2026-05-08 02:49 | 26.07192 | -80.14854 | 9 ft | 10 kts | 178° |
| 2026-05-08 02:49 | 26.07111 | -80.14850 | 9 ft | 11 kts | 165° |
| 2026-05-08 02:50 | 26.07086 | -80.14808 | 9 ft | 6 kts | 90° |
| 2026-05-08 02:50 | 26.07084 | -80.14758 | 9 ft | 3 kts | 97° |
| 2026-05-08 02:50 | 26.07083 | -80.14751 | 9 ft | 0 kts | 96° |